createdAt,value
2022-12-18T00:00:06.980Z,-1.18
2022-12-18T00:02:40.438Z,-1.21
2022-12-18T00:05:07.748Z,-1.28
2022-12-18T00:07:34.316Z,-1.30
2022-12-18T00:10:00.930Z,-1.47
2022-12-18T00:12:29.890Z,-1.39
2022-12-18T00:14:56.955Z,-1.43
2022-12-18T00:17:24.208Z,-1.46
2022-12-18T00:19:51.064Z,-1.55
2022-12-18T00:22:17.655Z,-1.61
2022-12-18T00:24:44.321Z,-1.53
2022-12-18T00:27:11.240Z,-1.67
2022-12-18T00:29:40.890Z,-1.66
2022-12-18T00:32:07.646Z,-1.57
2022-12-18T00:34:34.727Z,-1.58
2022-12-18T00:37:01.323Z,-1.58
2022-12-18T00:39:27.976Z,-1.62
2022-12-18T00:42:13.315Z,-1.65
2022-12-18T00:44:39.956Z,-1.69
2022-12-18T00:47:07.038Z,-1.83
2022-12-18T00:49:33.658Z,-1.82
2022-12-18T00:52:00.339Z,-1.84
2022-12-18T00:54:27.274Z,-1.89
2022-12-18T00:56:53.978Z,-1.90
2022-12-18T00:59:20.636Z,-1.92
2022-12-18T01:01:48.046Z,-2.04
2022-12-18T01:04:15.579Z,-2.01
2022-12-18T01:06:45.250Z,-1.98
2022-12-18T01:09:12.198Z,-2.03
2022-12-18T01:11:38.915Z,-2.14
2022-12-18T01:14:05.619Z,-2.06
2022-12-18T01:16:32.759Z,-2.09
2022-12-18T01:18:59.565Z,-2.22
2022-12-18T01:21:27.386Z,-2.22
2022-12-18T01:23:56.116Z,-2.15
2022-12-18T01:26:24.387Z,-2.14
2022-12-18T01:28:51.131Z,-2.13
2022-12-18T01:31:24.034Z,-2.13
2022-12-18T01:33:52.242Z,-2.24
2022-12-18T01:36:39.996Z,-2.16
2022-12-18T01:39:11.097Z,-2.16
2022-12-18T01:41:57.173Z,-2.26
2022-12-18T01:44:51.784Z,-2.27
2022-12-18T01:47:33.066Z,-2.32
2022-12-18T01:50:06.510Z,-2.34
2022-12-18T01:52:34.490Z,-2.39
2022-12-18T01:55:04.237Z,-2.52
2022-12-18T01:57:31.607Z,-2.45
2022-12-18T02:00:03.247Z,-2.51
2022-12-18T02:02:41.862Z,-2.54
2022-12-18T02:05:16.086Z,-2.66
2022-12-18T02:07:53.309Z,-2.60
2022-12-18T02:10:42.645Z,-2.68
2022-12-18T02:13:26.198Z,-2.62
2022-12-18T02:16:01.182Z,-2.66
2022-12-18T02:18:41.844Z,-2.68
2022-12-18T02:21:37.875Z,-2.73
2022-12-18T02:24:35.729Z,-2.87
2022-12-18T02:27:12.686Z,-2.86
2022-12-18T02:29:54.318Z,-2.79
2022-12-18T02:32:40.286Z,-2.81
2022-12-18T02:35:11.680Z,-2.81
2022-12-18T02:37:41.501Z,-2.81
2022-12-18T02:40:10.290Z,-2.83
2022-12-18T02:42:37.309Z,-2.87
2022-12-18T02:45:05.047Z,-2.98
2022-12-18T02:47:37.090Z,-2.88
2022-12-18T02:50:25.121Z,-2.97
2022-12-18T02:53:27.345Z,-2.90
2022-12-18T02:56:20.895Z,-2.95
2022-12-18T02:58:57.214Z,-2.95
2022-12-18T03:01:36.837Z,-2.95
2022-12-18T03:04:30.644Z,-3.02
2022-12-18T03:07:04.631Z,-2.97
2022-12-18T03:09:43.603Z,-2.98
2022-12-18T03:12:26.100Z,-2.96
2022-12-18T03:15:21.859Z,-3.03
2022-12-18T03:18:16.033Z,-2.99
2022-12-18T03:20:45.590Z,-2.99
2022-12-18T03:23:17.717Z,-3.06
2022-12-18T03:25:50.364Z,-2.99
2022-12-18T03:28:21.616Z,-3.01
2022-12-18T03:30:54.793Z,-3.03
2022-12-18T03:33:26.617Z,-3.05
2022-12-18T03:35:54.402Z,-3.08
2022-12-18T03:38:24.964Z,-3.10
2022-12-18T03:41:11.395Z,-3.10
2022-12-18T03:43:48.827Z,-3.21
2022-12-18T03:46:29.668Z,-3.27
2022-12-18T03:49:27.664Z,-3.32
2022-12-18T03:52:12.014Z,-3.27
2022-12-18T03:54:41.245Z,-3.36
2022-12-18T03:57:15.389Z,-3.33
2022-12-18T03:59:45.038Z,-3.44
2022-12-18T04:02:16.373Z,-3.34
2022-12-18T04:04:45.643Z,-3.45
2022-12-18T04:07:14.323Z,-3.38
2022-12-18T04:09:43.749Z,-3.49
2022-12-18T04:12:10.746Z,-3.47
2022-12-18T04:14:38.234Z,-3.43
2022-12-18T04:17:05.264Z,-3.43
2022-12-18T04:19:32.564Z,-3.44
2022-12-18T04:21:59.461Z,-3.45
2022-12-18T04:24:26.721Z,-3.44
2022-12-18T04:26:54.097Z,-3.44
2022-12-18T04:29:21.745Z,-3.54
2022-12-18T04:31:48.714Z,-3.46
2022-12-18T04:34:16.110Z,-3.47
2022-12-18T04:36:43.276Z,-3.52
2022-12-18T04:39:10.223Z,-3.48
2022-12-18T04:41:37.269Z,-3.48
2022-12-18T04:44:04.679Z,-3.49
2022-12-18T04:46:31.548Z,-3.58
2022-12-18T04:48:58.469Z,-3.47
2022-12-18T04:51:26.885Z,-3.48
2022-12-18T04:53:54.582Z,-3.50
2022-12-18T04:56:21.826Z,-3.51
2022-12-18T04:58:48.871Z,-3.59
2022-12-18T05:01:17.533Z,-3.57
2022-12-18T05:03:45.367Z,-3.64
2022-12-18T05:06:12.350Z,-3.58
2022-12-18T05:08:38.998Z,-3.58
2022-12-18T05:11:16.611Z,-3.63
2022-12-18T05:13:45.490Z,-3.59
2022-12-18T05:16:13.355Z,-3.62
2022-12-18T05:18:39.989Z,-3.72
2022-12-18T05:21:06.852Z,-3.65
2022-12-18T05:23:37.213Z,-3.68
2022-12-18T05:26:06.914Z,-3.78
2022-12-18T05:28:35.651Z,-3.69
2022-12-18T05:31:03.891Z,-3.72
2022-12-18T05:33:33.208Z,-3.74
2022-12-18T05:36:08.491Z,-3.76
2022-12-18T05:38:37.278Z,-3.84
2022-12-18T05:41:04.590Z,-3.76
2022-12-18T05:43:31.485Z,-3.77
2022-12-18T05:45:58.514Z,-3.79
2022-12-18T05:48:25.813Z,-3.89
2022-12-18T05:50:52.628Z,-3.80
2022-12-18T05:53:21.207Z,-3.81
2022-12-18T05:55:48.304Z,-3.85
2022-12-18T05:58:15.682Z,-3.93
2022-12-18T06:00:46.867Z,-3.94
2022-12-18T06:03:14.689Z,-3.86
2022-12-18T06:05:44.735Z,-3.86
2022-12-18T06:08:12.429Z,-3.86
2022-12-18T06:10:40.040Z,-3.89
2022-12-18T06:13:07.238Z,-3.93
2022-12-18T06:15:34.199Z,-3.97
2022-12-18T06:18:01.691Z,-3.95
2022-12-18T06:20:33.641Z,-4.03
2022-12-18T06:23:01.693Z,-3.91
2022-12-18T06:25:28.667Z,-4.04
2022-12-18T06:27:55.540Z,-3.98
2022-12-18T06:30:22.741Z,-3.97
2022-12-18T06:32:56.352Z,-3.96
2022-12-18T10:15:50.661Z,-3.72
2022-12-18T10:18:40.504Z,-3.72
2022-12-18T10:21:20.235Z,-4.15
2022-12-18T10:23:55.538Z,-4.16
2022-12-18T10:26:22.564Z,-4.19
2022-12-18T10:28:50.481Z,-4.27
2022-12-18T10:31:20.955Z,-4.29
2022-12-18T10:33:51.452Z,-4.28
2022-12-18T10:36:18.104Z,-4.38
2022-12-18T10:38:44.954Z,-4.31
2022-12-18T10:41:23.086Z,-4.33
2022-12-18T10:44:23.828Z,-4.44
2022-12-18T10:46:57.112Z,-4.36
2022-12-18T10:49:32.253Z,-4.38
2022-12-18T10:52:17.016Z,-4.38
2022-12-18T10:54:51.631Z,-4.39
2022-12-18T10:57:27.669Z,-4.40
2022-12-18T10:59:56.536Z,-4.53
2022-12-18T11:02:35.765Z,-4.42
2022-12-18T11:05:24.222Z,-4.40
2022-12-18T11:07:52.100Z,-4.41
2022-12-18T11:10:21.213Z,-4.40
2022-12-18T11:12:49.028Z,-4.46
2022-12-18T11:15:23.758Z,-4.45
2022-12-18T11:17:52.818Z,-4.45
2022-12-18T11:20:26.933Z,-4.43
2022-12-18T11:22:59.538Z,-4.44
2022-12-18T11:25:32.689Z,-4.43
2022-12-18T11:28:03.657Z,-4.43
2022-12-18T11:30:33.308Z,-4.45
2022-12-18T11:33:06.751Z,-4.47
2022-12-18T11:35:57.121Z,-4.48
2022-12-18T11:38:51.835Z,-4.49
2022-12-18T11:41:56.099Z,-4.48
2022-12-18T11:44:33.709Z,-4.46
2022-12-18T11:47:09.675Z,-4.45
2022-12-18T11:49:37.371Z,-4.49
2022-12-18T11:52:19.245Z,-4.46
2022-12-18T11:54:46.230Z,-4.57
2022-12-18T11:57:40.863Z,-4.47
2022-12-18T12:00:13.563Z,-4.47
2022-12-18T12:03:14.318Z,-4.47
2022-12-18T12:05:53.251Z,-4.57
2022-12-18T12:08:43.067Z,-4.49
2022-12-18T12:11:31.553Z,-4.50
2022-12-18T12:14:13.698Z,-4.49
2022-12-18T12:17:08.400Z,-4.51
2022-12-18T12:19:51.205Z,-4.55
2022-12-18T12:22:50.506Z,-4.54
2022-12-18T12:25:27.244Z,-4.54
2022-12-18T12:28:13.085Z,-4.50
2022-12-18T12:31:04.505Z,-4.49
2022-12-18T12:33:49.369Z,-4.58
2022-12-18T12:36:31.944Z,-4.52
2022-12-18T12:39:06.702Z,-4.53
2022-12-18T12:41:54.739Z,-4.54
2022-12-18T12:44:35.458Z,-4.48
2022-12-18T12:47:34.126Z,-4.46
2022-12-18T12:50:06.226Z,-4.47
2022-12-18T12:52:43.531Z,-4.57
2022-12-18T12:55:21.531Z,-4.50
2022-12-18T12:58:12.208Z,-4.55
2022-12-18T13:00:58.469Z,-4.50
2022-12-18T13:04:01.044Z,-4.54
2022-12-18T13:06:44.581Z,-4.50
2022-12-18T13:09:11.916Z,-4.52
2022-12-18T13:12:03.725Z,-4.53
2022-12-18T13:14:35.840Z,-4.54
2022-12-18T13:17:30.149Z,-4.56
2022-12-18T13:20:06.607Z,-4.59
2022-12-18T13:22:52.384Z,-4.60
2022-12-18T13:25:31.908Z,-4.71
2022-12-18T13:28:06.452Z,-4.61
2022-12-18T13:30:33.417Z,-4.60
2022-12-18T13:33:15.302Z,-4.60
2022-12-18T13:35:52.333Z,-4.60
2022-12-18T13:38:36.046Z,-4.62
2022-12-18T13:41:22.440Z,-4.64
2022-12-18T13:43:55.195Z,-4.66
2022-12-18T13:46:23.781Z,-4.68
2022-12-18T13:49:14.931Z,-4.72
2022-12-18T13:51:51.113Z,-4.74
2022-12-18T13:54:35.732Z,-4.74
2022-12-18T13:57:03.829Z,-4.83
2022-12-18T13:59:40.986Z,-4.76
2022-12-18T14:02:17.890Z,-4.86
2022-12-18T14:04:49.865Z,-4.90
2022-12-18T14:07:20.167Z,-4.91
2022-12-18T14:10:01.990Z,-4.82
2022-12-18T14:12:57.798Z,-4.84
2022-12-18T14:15:42.635Z,-4.85
2022-12-18T14:18:28.120Z,-4.86
2022-12-18T14:21:00.658Z,-4.85
2022-12-18T14:23:32.103Z,-4.96
2022-12-18T14:26:05.403Z,-4.87
2022-12-18T14:28:32.982Z,-4.89
2022-12-18T14:31:00.246Z,-4.92
2022-12-18T14:33:28.625Z,-4.92
2022-12-18T14:36:02.568Z,-4.93
2022-12-18T14:38:40.192Z,-4.94
2022-12-18T14:41:11.849Z,-4.96
2022-12-18T14:43:41.835Z,-5.00
2022-12-18T14:46:43.372Z,-5.02
2022-12-18T14:49:33.551Z,-5.01
2022-12-18T14:52:02.761Z,-5.03
2022-12-18T14:54:31.224Z,-5.16
2022-12-18T14:57:04.198Z,-5.09
2022-12-18T14:59:32.142Z,-5.15
2022-12-18T15:02:10.644Z,-5.23
2022-12-18T15:04:42.083Z,-5.16
2022-12-18T15:07:17.380Z,-5.18
2022-12-18T15:10:03.839Z,-5.16
2022-12-18T15:12:43.935Z,-5.17
2022-12-18T15:15:41.454Z,-5.20
2022-12-18T15:18:08.171Z,-5.20
2022-12-18T15:20:44.637Z,-5.21
2022-12-18T15:23:18.834Z,-5.21
2022-12-18T15:25:47.727Z,-5.21
2022-12-18T15:28:32.431Z,-5.21
2022-12-18T15:31:02.064Z,-5.22
2022-12-18T15:33:40.304Z,-5.34
2022-12-18T15:36:15.854Z,-5.35
2022-12-18T15:38:50.888Z,-5.25
2022-12-18T15:41:24.545Z,-5.29
2022-12-18T15:43:53.490Z,-5.31
2022-12-18T15:46:22.996Z,-5.32
2022-12-18T15:48:59.756Z,-5.34
2022-12-18T15:51:35.583Z,-5.35
2022-12-18T15:54:05.538Z,-5.38
2022-12-18T15:56:51.838Z,-5.40
2022-12-18T15:59:20.497Z,-5.43
2022-12-18T16:01:50.457Z,-5.44
2022-12-18T16:04:21.589Z,-5.49
2022-12-18T18:44:28.287Z,-5.74
2022-12-18T18:46:57.775Z,-5.74
2022-12-18T18:49:27.510Z,-6.12
2022-12-18T18:51:56.429Z,-6.27
2022-12-18T18:54:23.593Z,-6.20
2022-12-18T18:59:37.370Z,-6.28
2022-12-18T19:02:05.057Z,-6.29
2022-12-18T19:04:34.017Z,-6.30
2022-12-18T19:07:01.302Z,-6.39
2022-12-18T19:09:28.748Z,-6.35
2022-12-18T19:12:14.618Z,-6.38
2022-12-18T19:14:42.215Z,-6.42
2022-12-18T19:17:10.886Z,-6.44
2022-12-18T19:19:37.665Z,-6.48
2022-12-18T19:22:07.773Z,-6.50
2022-12-18T19:24:35.487Z,-6.49
2022-12-18T19:27:02.142Z,-6.53
2022-12-18T19:29:29.056Z,-6.56
2022-12-18T19:31:55.872Z,-6.50
2022-12-18T19:34:22.485Z,-6.50
2022-12-18T19:36:49.765Z,-6.55
2022-12-18T19:39:19.190Z,-6.52
2022-12-18T19:41:46.615Z,-6.53
2022-12-18T19:44:16.275Z,-6.56
2022-12-18T19:46:46.084Z,-6.57
2022-12-18T19:49:18.041Z,-6.59
2022-12-18T19:51:45.377Z,-6.61
2022-12-18T19:54:16.702Z,-6.61
2022-12-18T19:56:45.403Z,-6.61
2022-12-18T19:59:14.876Z,-6.64
2022-12-18T20:01:42.053Z,-6.63
2022-12-18T20:04:09.249Z,-6.65
2022-12-18T20:06:50.037Z,-6.66
2022-12-18T20:09:18.078Z,-6.64
2022-12-18T20:11:45.926Z,-6.72
2022-12-18T20:14:14.432Z,-6.63
2022-12-18T20:16:45.540Z,-6.62
2022-12-18T20:19:13.488Z,-6.64
2022-12-18T20:21:41.375Z,-6.66
2022-12-18T20:24:08.722Z,-6.67
2022-12-18T20:26:35.357Z,-6.68
2022-12-18T20:29:02.020Z,-6.71
2022-12-18T20:31:29.362Z,-6.73
2022-12-18T20:34:00.237Z,-6.81
2022-12-18T20:36:28.350Z,-6.72
2022-12-18T20:38:59.317Z,-6.72
2022-12-18T20:41:35.204Z,-6.71
2022-12-18T20:44:23.246Z,-6.81
2022-12-18T20:46:59.180Z,-6.69
2022-12-18T20:49:27.717Z,-6.72
2022-12-18T20:51:56.872Z,-6.71
2022-12-18T20:54:26.403Z,-6.72
2022-12-18T20:56:53.566Z,-6.74
2022-12-18T20:59:20.486Z,-6.76
2022-12-18T21:01:48.964Z,-6.78
2022-12-18T21:04:18.441Z,-6.81
2022-12-18T21:06:50.960Z,-6.82
2022-12-18T21:09:19.791Z,-6.79
2022-12-18T21:12:05.029Z,-6.77
2022-12-18T21:14:32.134Z,-6.80
2022-12-18T21:17:02.547Z,-6.81
2022-12-18T21:19:29.553Z,-6.93
2022-12-18T21:21:57.587Z,-6.86
2022-12-18T21:24:25.482Z,-6.92
2022-12-18T21:26:52.490Z,-6.94
2022-12-18T21:29:25.100Z,-6.96
2022-12-18T21:31:54.478Z,-7.02
2022-12-18T21:34:26.753Z,-7.12
2022-12-18T21:36:56.134Z,-7.06
2022-12-18T21:39:23.318Z,-7.24
2022-12-18T21:42:09.845Z,-7.19
2022-12-18T21:44:40.869Z,-7.23
2022-12-18T21:47:21.462Z,-7.30
2022-12-18T21:49:50.006Z,-7.37
2022-12-18T21:52:16.873Z,-7.45
2022-12-18T21:54:43.537Z,-7.52
2022-12-18T21:57:11.084Z,-7.67
2022-12-18T21:59:40.275Z,-7.77
